createdAt,value
2022-09-30T00:02:27.682Z,50.00
2022-09-30T00:07:29.159Z,50.76
2022-09-30T00:12:30.922Z,50.53
2022-09-30T00:17:32.391Z,51.05
2022-09-30T00:22:33.849Z,50.14
2022-09-30T00:27:35.429Z,50.43
2022-09-30T00:32:37.305Z,51.27
2022-09-30T00:37:38.791Z,50.57
2022-09-30T00:42:40.680Z,50.67
2022-09-30T00:48:08.006Z,50.26
2022-09-30T00:53:14.564Z,50.13
2022-09-30T00:58:20.330Z,50.42
2022-09-30T01:03:22.714Z,50.86
2022-09-30T01:08:24.228Z,50.62
2022-09-30T01:13:27.392Z,50.96
2022-09-30T01:18:51.480Z,50.07
2022-09-30T01:24:26.602Z,50.06
2022-09-30T01:29:52.478Z,50.66
2022-09-30T01:35:26.988Z,50.18
2022-09-30T01:40:37.980Z,50.42
2022-09-30T01:45:48.498Z,51.18
2022-09-30T01:50:54.285Z,51.10
2022-09-30T01:56:34.014Z,52.01
2022-09-30T02:01:40.400Z,53.21
2022-09-30T02:06:44.167Z,53.87
2022-09-30T02:11:45.657Z,54.10
2022-09-30T02:17:13.521Z,54.98
2022-09-30T02:22:24.553Z,54.27
2022-09-30T02:27:29.888Z,54.70
2022-09-30T02:32:33.944Z,53.91
2022-09-30T02:37:36.872Z,54.13
2022-09-30T02:42:38.751Z,54.54
2022-09-30T02:47:47.315Z,53.75
2022-09-30T02:53:01.959Z,54.21
2022-09-30T02:58:12.121Z,53.47
2022-09-30T03:03:20.442Z,53.59
2022-09-30T03:08:21.948Z,54.42
2022-09-30T03:13:44.084Z,54.05
2022-09-30T03:19:16.171Z,53.03
2022-09-30T03:25:02.338Z,52.87
2022-09-30T03:30:08.263Z,52.20
2022-09-30T03:35:19.097Z,51.99
2022-09-30T03:40:43.713Z,52.69
2022-09-30T03:45:56.920Z,52.63
2022-09-30T03:50:58.383Z,52.50
2022-09-30T03:55:59.856Z,53.23
2022-09-30T04:01:01.416Z,53.54
2022-09-30T04:06:04.040Z,53.35
2022-09-30T04:11:05.646Z,52.95
2022-09-30T04:16:08.081Z,53.10
2022-09-30T04:21:10.164Z,53.33
2022-09-30T04:26:12.765Z,54.00
2022-09-30T04:31:14.230Z,53.33
2022-09-30T04:36:15.775Z,53.42
2022-09-30T04:41:17.970Z,53.95
2022-09-30T04:46:20.913Z,53.41
2022-09-30T04:51:22.392Z,53.16
2022-09-30T04:56:24.383Z,53.14
2022-09-30T05:01:25.873Z,52.44
2022-09-30T05:06:27.351Z,52.20
2022-09-30T05:11:29.597Z,52.14
2022-09-30T05:16:31.100Z,51.31
2022-09-30T05:21:32.642Z,50.95
2022-09-30T05:26:34.125Z,51.34
2022-09-30T05:31:35.664Z,51.70
2022-09-30T05:36:37.226Z,50.83
2022-09-30T05:41:38.770Z,50.74
2022-09-30T05:46:41.238Z,51.16
2022-09-30T05:51:42.798Z,50.88
2022-09-30T05:56:44.349Z,50.84
2022-09-30T06:01:45.980Z,50.82
2022-09-30T06:06:48.611Z,50.29
2022-09-30T06:11:49.959Z,50.90
2022-09-30T06:16:51.482Z,50.72
2022-09-30T06:21:52.997Z,50.46
2022-09-30T06:26:54.464Z,50.48
2022-09-30T06:31:55.989Z,50.18
2022-09-30T06:36:57.472Z,49.96
2022-09-30T06:41:58.948Z,49.78
2022-09-30T06:47:00.486Z,48.97
2022-09-30T06:52:01.984Z,48.97
2022-09-30T06:57:03.465Z,48.59
2022-09-30T07:02:05.212Z,49.51
2022-09-30T07:07:07.150Z,49.46
2022-09-30T07:12:08.676Z,49.40
2022-09-30T07:17:10.148Z,49.42
2022-09-30T07:22:29.764Z,49.22
2022-09-30T07:27:32.584Z,48.65
2022-09-30T07:32:34.130Z,48.67
2022-09-30T07:37:36.215Z,48.17
2022-09-30T07:42:39.056Z,47.59
2022-09-30T07:47:40.687Z,47.47
2022-09-30T07:52:42.179Z,47.22
2022-09-30T07:57:43.650Z,46.73
2022-09-30T08:02:45.268Z,46.32
2022-09-30T08:07:46.804Z,46.79
2022-09-30T08:12:48.278Z,46.26
2022-09-30T08:17:49.760Z,45.16
2022-09-30T08:22:58.163Z,40.95
2022-09-30T08:27:59.676Z,42.59
2022-09-30T08:33:01.167Z,43.58
2022-09-30T08:38:02.653Z,43.92
2022-09-30T08:43:35.771Z,44.28
2022-09-30T08:48:52.427Z,45.34
2022-09-30T08:53:53.918Z,45.38
2022-09-30T08:58:58.209Z,47.25
2022-09-30T09:04:00.131Z,47.70
2022-09-30T09:09:16.811Z,48.84
2022-09-30T09:14:37.691Z,46.27
2022-09-30T09:20:00.342Z,47.68
2022-09-30T09:25:01.808Z,47.36
2022-09-30T09:30:13.011Z,47.82
2022-09-30T09:35:28.958Z,47.45
2022-09-30T09:40:57.404Z,46.75
2022-09-30T09:46:36.462Z,47.92
2022-09-30T09:51:37.954Z,47.00
2022-09-30T09:56:39.541Z,46.85
2022-09-30T10:01:43.486Z,47.34
2022-09-30T10:06:53.331Z,48.27
2022-09-30T10:12:18.188Z,49.87
2022-09-30T10:17:33.620Z,50.07
2022-09-30T10:22:35.896Z,50.06
2022-09-30T10:27:37.377Z,50.02
2022-09-30T10:32:38.858Z,49.82
2022-09-30T10:37:40.339Z,49.90
2022-09-30T10:42:41.928Z,50.57
2022-09-30T10:47:47.673Z,50.54
2022-09-30T10:52:54.779Z,50.84
2022-09-30T10:57:57.535Z,50.08
2022-09-30T11:03:03.082Z,51.34
2022-09-30T11:08:25.564Z,51.02
2022-09-30T11:13:43.174Z,49.44
2022-09-30T11:18:54.050Z,48.51
2022-09-30T11:24:00.295Z,48.01
2022-09-30T11:29:08.805Z,46.13
2022-09-30T11:34:10.099Z,45.68
2022-09-30T11:39:14.607Z,44.99
2022-09-30T11:44:26.228Z,45.12
2022-09-30T11:49:44.464Z,45.42
2022-09-30T11:55:06.422Z,43.44
2022-09-30T12:00:15.750Z,43.66
2022-09-30T12:05:26.470Z,44.03
2022-09-30T12:10:31.356Z,44.22
2022-09-30T12:15:32.948Z,43.52
2022-09-30T12:20:41.975Z,43.59
2022-09-30T12:25:50.790Z,44.15
2022-09-30T12:30:57.407Z,44.01
2022-09-30T12:36:19.982Z,43.85
2022-09-30T12:42:03.724Z,43.19
2022-09-30T12:47:23.298Z,43.03
2022-09-30T12:52:24.778Z,43.55
2022-09-30T12:57:28.282Z,43.33
2022-09-30T13:02:37.786Z,43.80
2022-09-30T13:07:39.616Z,43.26
2022-09-30T13:12:45.706Z,41.84
2022-09-30T13:17:47.187Z,43.01
2022-09-30T13:22:54.742Z,43.00
2022-09-30T13:28:14.248Z,43.01
2022-09-30T13:33:41.188Z,43.63
2022-09-30T13:38:42.698Z,43.52
2022-09-30T13:44:05.631Z,43.91
2022-09-30T13:49:15.277Z,44.83
2022-09-30T13:54:25.884Z,43.57
2022-09-30T13:59:49.125Z,43.89
2022-09-30T14:05:09.249Z,44.88
2022-09-30T14:10:36.242Z,43.95
2022-09-30T14:15:37.816Z,42.96
2022-09-30T14:20:42.779Z,44.14
2022-09-30T14:26:09.901Z,44.67
2022-09-30T14:31:13.600Z,45.01
2022-09-30T14:36:17.392Z,44.53
2022-09-30T14:41:20.860Z,44.40
2022-09-30T14:46:30.284Z,44.39
2022-09-30T14:51:43.418Z,44.54
2022-09-30T14:56:45.057Z,45.43
2022-09-30T15:01:51.328Z,44.67
2022-09-30T15:06:52.915Z,43.58
2022-09-30T15:11:54.751Z,44.02
2022-09-30T15:16:59.384Z,45.13
2022-09-30T15:22:04.719Z,45.22
2022-09-30T15:27:07.349Z,45.36
2022-09-30T15:32:15.624Z,45.97
2022-09-30T15:37:21.752Z,45.71
2022-09-30T15:42:31.171Z,46.55
2022-09-30T15:47:33.295Z,46.34
2022-09-30T15:52:41.120Z,47.17
2022-09-30T15:57:47.373Z,46.26
2022-09-30T16:02:48.929Z,46.70
2022-09-30T16:07:50.452Z,45.75
2022-09-30T16:17:58.321Z,47.31
2022-09-30T16:23:02.457Z,48.59
2022-09-30T16:28:13.718Z,48.19
2022-09-30T16:33:15.519Z,48.31
2022-09-30T16:38:17.636Z,46.36
2022-09-30T16:43:19.108Z,47.14
2022-09-30T16:48:21.526Z,46.69
2022-09-30T16:53:22.920Z,46.55
2022-09-30T16:58:24.479Z,47.22
2022-09-30T17:03:26.060Z,48.00
2022-09-30T17:08:27.571Z,49.62
2022-09-30T17:13:29.056Z,48.20
2022-09-30T17:18:30.544Z,48.07
2022-09-30T17:23:32.022Z,48.38
2022-09-30T17:28:34.696Z,48.15
2022-09-30T17:33:37.834Z,47.91
2022-09-30T17:38:39.454Z,48.18
2022-09-30T17:43:40.952Z,48.04
2022-09-30T17:48:44.066Z,49.19
2022-09-30T17:53:45.552Z,50.61
2022-09-30T17:58:47.836Z,49.51
2022-09-30T18:03:53.050Z,50.00
2022-09-30T18:08:54.750Z,49.89
2022-09-30T18:13:57.999Z,49.78
2022-09-30T18:19:00.627Z,50.61
2022-09-30T18:24:02.239Z,50.00
2022-09-30T18:29:04.101Z,49.77
2022-09-30T18:34:05.932Z,50.35
2022-09-30T18:39:07.432Z,51.41
2022-09-30T18:44:09.614Z,51.77
2022-09-30T18:49:11.348Z,50.41
2022-09-30T18:54:15.224Z,49.49
2022-09-30T18:59:19.291Z,51.18
2022-09-30T19:04:23.527Z,51.15
2022-09-30T19:09:26.627Z,51.76
2022-09-30T19:14:30.693Z,51.69
2022-09-30T19:19:36.022Z,49.96
2022-09-30T19:24:37.879Z,50.97
2022-09-30T19:29:40.459Z,50.67
2022-09-30T19:34:42.767Z,52.02
2022-09-30T19:39:46.253Z,50.63
2022-09-30T19:44:47.834Z,52.47
2022-09-30T19:49:49.405Z,52.19
2022-09-30T19:54:51.804Z,51.64
2022-09-30T19:59:53.330Z,53.16
2022-09-30T20:04:54.803Z,51.96
2022-09-30T20:09:56.754Z,51.00
2022-09-30T20:15:16.602Z,50.89
2022-09-30T20:20:36.993Z,52.94
2022-09-30T20:25:38.562Z,52.61
2022-09-30T20:30:50.561Z,52.99
2022-09-30T20:35:52.066Z,52.51
2022-09-30T20:40:57.287Z,53.11
2022-09-30T20:46:08.295Z,53.70
2022-09-30T20:51:11.151Z,52.89
2022-09-30T20:56:13.177Z,53.82
2022-09-30T21:01:18.268Z,54.66
2022-09-30T21:06:27.155Z,55.15
2022-09-30T21:11:28.811Z,53.76
2022-09-30T21:16:31.003Z,53.74
2022-09-30T21:21:32.754Z,54.69
2022-09-30T21:26:35.518Z,55.30
2022-09-30T21:31:38.055Z,55.19
2022-09-30T21:36:39.798Z,54.27
2022-09-30T21:41:41.306Z,53.76
2022-09-30T21:46:48.017Z,54.25
2022-09-30T21:51:51.574Z,53.60
2022-09-30T21:56:53.452Z,53.99
2022-09-30T22:01:54.997Z,52.66
2022-09-30T22:06:56.518Z,53.60
2022-09-30T22:11:58.193Z,54.21
2022-09-30T22:16:59.696Z,53.57
2022-09-30T22:22:01.696Z,54.07
2022-09-30T22:27:07.445Z,53.23
2022-09-30T22:32:08.976Z,54.03
2022-09-30T22:37:29.112Z,52.80
2022-09-30T22:42:30.591Z,53.21
2022-09-30T22:47:32.060Z,52.46
2022-09-30T22:52:33.528Z,51.98
2022-09-30T22:57:35.010Z,52.83
2022-09-30T23:02:36.542Z,53.77
2022-09-30T23:07:38.043Z,52.86
2022-09-30T23:12:39.550Z,54.04
2022-09-30T23:17:41.024Z,53.66
2022-09-30T23:22:42.696Z,52.73
2022-09-30T23:27:48.630Z,52.68
2022-09-30T23:32:50.166Z,53.97
2022-09-30T23:37:52.598Z,53.17
2022-09-30T23:42:55.236Z,52.25
2022-09-30T23:47:59.105Z,51.11
2022-09-30T23:53:00.622Z,50.59
2022-09-30T23:58:02.091Z,50.45
